createdAt,value
2017-09-26T00:02:02.070Z,102219
2017-09-26T00:04:31.294Z,102213
2017-09-26T00:07:01.575Z,102212
2017-09-26T00:09:31.134Z,102215
2017-09-26T00:12:00.276Z,102209
2017-09-26T00:14:29.413Z,102210
2017-09-26T00:16:58.834Z,102210
2017-09-26T00:19:27.963Z,102208
2017-09-26T00:21:57.141Z,102207
2017-09-26T00:24:26.734Z,102214
2017-09-26T00:26:55.835Z,102212
2017-09-26T00:29:25.949Z,102207
2017-09-26T00:31:55.486Z,102207
2017-09-26T00:34:25.676Z,102206
2017-09-26T00:36:55.613Z,102206
2017-09-26T00:39:24.826Z,102206
2017-09-26T00:41:53.958Z,102207
2017-09-26T00:44:23.482Z,102209
2017-09-26T00:46:52.811Z,102207
2017-09-26T00:49:22.753Z,102205
2017-09-26T00:51:51.952Z,102208
2017-09-26T00:54:21.386Z,102207
2017-09-26T00:56:51.350Z,102208
2017-09-26T00:59:20.597Z,102209
2017-09-26T01:01:50.208Z,102206
2017-09-26T01:04:19.651Z,102208
2017-09-26T01:06:52.806Z,102211
2017-09-26T01:09:21.979Z,102208
2017-09-26T01:11:51.199Z,102208
2017-09-26T01:14:20.658Z,102207
2017-09-26T01:16:49.849Z,102203
2017-09-26T01:19:20.269Z,102205
2017-09-26T01:21:50.574Z,102205
2017-09-26T01:24:20.591Z,102204
2017-09-26T01:26:49.858Z,102206
2017-09-26T01:29:19.198Z,102206
2017-09-26T01:31:49.181Z,102208
2017-09-26T01:34:18.383Z,102211
2017-09-26T01:36:48.451Z,102218
2017-09-26T01:39:17.629Z,102217
2017-09-26T01:41:46.897Z,102215
2017-09-26T01:44:18.143Z,102215
2017-09-26T01:46:48.086Z,102211
2017-09-26T01:49:17.323Z,102211
2017-09-26T01:51:46.941Z,102208
2017-09-26T01:54:16.125Z,102213
2017-09-26T01:57:03.203Z,102212
2017-09-26T01:59:32.345Z,102211
2017-09-26T02:02:01.465Z,102211
2017-09-26T02:04:30.770Z,102209
2017-09-26T02:06:59.867Z,102210
2017-09-26T02:09:28.963Z,102207
2017-09-26T02:11:58.463Z,102204
2017-09-26T02:14:27.561Z,102205
2017-09-26T02:16:56.709Z,102204
2017-09-26T02:19:27.051Z,102203
2017-09-26T02:21:56.924Z,102206
2017-09-26T02:24:26.091Z,102201
2017-09-26T02:26:55.750Z,102199
2017-09-26T02:29:24.861Z,102198
2017-09-26T02:31:53.990Z,102203
2017-09-26T02:34:24.192Z,102198
2017-09-26T02:36:54.150Z,102199
2017-09-26T02:39:23.293Z,102206
2017-09-26T02:41:53.081Z,102200
2017-09-26T02:44:22.200Z,102202
2017-09-26T02:46:51.456Z,102204
2017-09-26T02:49:20.902Z,102207
2017-09-26T02:51:50.058Z,102206
2017-09-26T02:54:19.229Z,102204
2017-09-26T02:56:48.786Z,102207
2017-09-26T02:59:17.929Z,102218
2017-09-26T03:01:47.096Z,102216
2017-09-26T03:04:17.089Z,102217
2017-09-26T03:06:46.270Z,102215
2017-09-26T03:09:15.520Z,102216
2017-09-26T03:11:44.873Z,102212
2017-09-26T03:14:14.854Z,102218
2017-09-26T03:16:44.108Z,102216
2017-09-26T03:19:13.610Z,102217
2017-09-26T03:21:42.762Z,102219
2017-09-26T03:24:12.778Z,102222
2017-09-26T03:26:42.259Z,102215
2017-09-26T03:29:11.509Z,102216
2017-09-26T03:31:40.835Z,102219
2017-09-26T03:34:10.571Z,102219
2017-09-26T03:36:39.844Z,102219
2017-09-26T03:39:09.277Z,102224
2017-09-26T03:41:39.558Z,102222
2017-09-26T03:44:09.769Z,102225
2017-09-26T03:46:39.016Z,102224
2017-09-26T03:49:08.235Z,102226
2017-09-26T03:51:38.617Z,102223
2017-09-26T03:54:07.940Z,102221
2017-09-26T03:56:37.395Z,102221
2017-09-26T03:59:07.546Z,102224
2017-09-26T04:01:36.705Z,102228
2017-09-26T04:04:06.228Z,102222
2017-09-26T04:06:36.260Z,102236
2017-09-26T04:09:05.524Z,102230
2017-09-26T04:11:35.588Z,102233
2017-09-26T04:14:04.760Z,102238
2017-09-26T04:16:34.016Z,102234
2017-09-26T04:19:03.222Z,102234
2017-09-26T04:21:32.421Z,102239
2017-09-26T04:24:02.374Z,102238
2017-09-26T04:26:31.713Z,102237
2017-09-26T04:29:00.907Z,102239
2017-09-26T04:31:30.806Z,102234
2017-09-26T04:34:00.214Z,102236
2017-09-26T04:36:30.200Z,102234
2017-09-26T04:39:00.196Z,102234
2017-09-26T04:41:29.605Z,102239
2017-09-26T04:43:58.781Z,102239
2017-09-26T04:46:27.912Z,102241
2017-09-26T04:48:58.268Z,102238
2017-09-26T04:51:28.441Z,102237
2017-09-26T04:53:57.613Z,102239
2017-09-26T04:56:27.049Z,102244
2017-09-26T04:58:56.283Z,102243
2017-09-26T05:01:25.467Z,102246
2017-09-26T05:03:55.018Z,102248
2017-09-26T05:06:24.185Z,102250
2017-09-26T05:08:53.311Z,102252
2017-09-26T05:11:23.154Z,102254
2017-09-26T05:13:56.863Z,102256
2017-09-26T05:16:26.335Z,102256
2017-09-26T05:18:56.380Z,102255
2017-09-26T05:21:25.552Z,102254
2017-09-26T05:23:55.047Z,102259
2017-09-26T05:26:24.765Z,102263
2017-09-26T05:28:55.661Z,102247
2017-09-26T05:31:24.790Z,102262
2017-09-26T05:34:10.718Z,102258
2017-09-26T05:36:40.633Z,102265
2017-09-26T05:39:09.943Z,102260
2017-09-26T05:41:40.290Z,102264
2017-09-26T05:44:10.414Z,102267
2017-09-26T05:46:39.645Z,102267
2017-09-26T05:49:09.078Z,102264
2017-09-26T05:51:38.276Z,102268
2017-09-26T05:54:08.513Z,102270
2017-09-26T05:56:38.116Z,102273
2017-09-26T05:59:07.238Z,102282
2017-09-26T06:01:36.468Z,102287
2017-09-26T06:04:05.775Z,102286
2017-09-26T06:06:34.877Z,102292
2017-09-26T06:09:05.015Z,102292
2017-09-26T06:11:34.471Z,102292
2017-09-26T06:14:05.484Z,102296
2017-09-26T06:16:34.668Z,102297
2017-09-26T06:19:03.852Z,102297
2017-09-26T06:21:33.762Z,102305
2017-09-26T06:24:03.723Z,102307
2017-09-26T06:26:33.260Z,102306
2017-09-26T06:29:02.458Z,102307
2017-09-26T06:31:31.781Z,102307
2017-09-26T06:34:01.084Z,102307
2017-09-26T06:36:31.772Z,102314
2017-09-26T06:39:00.935Z,102316
2017-09-26T06:41:30.088Z,102320
2017-09-26T06:43:59.251Z,102324
2017-09-26T06:46:28.385Z,102325
2017-09-26T06:48:58.874Z,102332
2017-09-26T06:51:28.009Z,102330
2017-09-26T06:53:57.177Z,102331
2017-09-26T06:56:26.687Z,102339
2017-09-26T06:58:56.131Z,102337
2017-09-26T07:01:26.208Z,102341
2017-09-26T07:03:55.661Z,102340
2017-09-26T07:06:24.809Z,102336
2017-09-26T07:08:53.935Z,102336
2017-09-26T07:11:24.083Z,102343
2017-09-26T07:13:53.203Z,102343
2017-09-26T07:16:22.339Z,102344
2017-09-26T07:18:51.638Z,102342
2017-09-26T07:21:20.824Z,102339
2017-09-26T07:23:50.936Z,102347
2017-09-26T07:26:20.202Z,102349
2017-09-26T07:28:49.336Z,102354
2017-09-26T07:31:19.302Z,102358
2017-09-26T07:33:48.947Z,102358
2017-09-26T07:36:18.073Z,102361
2017-09-26T07:38:47.174Z,102361
2017-09-26T07:41:17.330Z,102364
2017-09-26T07:43:46.531Z,102363
2017-09-26T07:46:15.830Z,102365
2017-09-26T07:48:45.030Z,102363
2017-09-26T07:51:14.212Z,102364
2017-09-26T07:53:43.500Z,102366
2017-09-26T07:56:14.493Z,102365
2017-09-26T07:58:43.738Z,102366
2017-09-26T08:01:13.353Z,102364
2017-09-26T08:03:43.187Z,102370
2017-09-26T08:06:13.100Z,102370
2017-09-26T08:08:43.577Z,102378
2017-09-26T08:11:13.032Z,102370
2017-09-26T08:13:42.325Z,102376
2017-09-26T08:16:11.632Z,102381
2017-09-26T08:18:41.339Z,102378
2017-09-26T08:21:11.412Z,102379
2017-09-26T08:23:40.765Z,102378
2017-09-26T08:26:10.879Z,102377
2017-09-26T08:28:40.895Z,102382
2017-09-26T08:31:10.230Z,102384
2017-09-26T08:33:39.792Z,102381
2017-09-26T08:36:10.045Z,102386
2017-09-26T08:38:39.488Z,102382
2017-09-26T08:41:08.922Z,102386
2017-09-26T08:43:38.122Z,102379
2017-09-26T08:46:08.123Z,102381
2017-09-26T08:48:38.295Z,102385
2017-09-26T08:51:07.562Z,102384
2017-09-26T08:53:36.747Z,102382
2017-09-26T08:56:06.944Z,102384
2017-09-26T08:58:36.064Z,102387
2017-09-26T09:01:05.267Z,102386
2017-09-26T09:03:35.486Z,102390
2017-09-26T09:06:04.599Z,102392
2017-09-26T09:08:33.780Z,102395
2017-09-26T09:11:03.877Z,102399
2017-09-26T09:13:32.998Z,102397
2017-09-26T09:16:03.012Z,102393
2017-09-26T09:18:32.520Z,102396
2017-09-26T09:21:02.716Z,102395
2017-09-26T09:23:32.007Z,102394
2017-09-26T09:26:01.170Z,102393
2017-09-26T09:28:30.286Z,102402
2017-09-26T09:30:59.431Z,102401
2017-09-26T09:33:28.898Z,102399
2017-09-26T09:35:58.046Z,102402
2017-09-26T09:38:27.305Z,102410
2017-09-26T09:40:57.593Z,102408
2017-09-26T09:43:27.544Z,102413
2017-09-26T09:45:56.691Z,102408
2017-09-26T09:48:25.990Z,102411
2017-09-26T09:50:55.703Z,102420
2017-09-26T09:53:25.221Z,102423
2017-09-26T09:55:54.643Z,102421
2017-09-26T09:58:23.759Z,102426
2017-09-26T10:00:52.898Z,102418
2017-09-26T10:03:22.200Z,102418
2017-09-26T10:05:52.157Z,102424
2017-09-26T10:08:21.351Z,102428
2017-09-26T10:10:50.629Z,102424
2017-09-26T10:13:20.931Z,102425
2017-09-26T10:15:50.117Z,102427
2017-09-26T10:18:20.359Z,102425
2017-09-26T10:20:50.273Z,102420
2017-09-26T10:23:20.219Z,102424
2017-09-26T10:25:50.494Z,102423
2017-09-26T10:28:19.648Z,102423
2017-09-26T10:30:49.694Z,102426
2017-09-26T10:33:20.122Z,102423
2017-09-26T10:35:49.245Z,102424
2017-09-26T10:38:19.967Z,102423
2017-09-26T10:40:51.604Z,102426
2017-09-26T10:43:24.122Z,102423
2017-09-26T10:45:53.718Z,102428
2017-09-26T10:48:23.785Z,102424
2017-09-26T10:50:52.969Z,102427
2017-09-26T10:53:23.866Z,102428
2017-09-26T10:55:53.022Z,102422
2017-09-26T10:58:23.701Z,102419
2017-09-26T11:00:52.938Z,102419
2017-09-26T11:03:23.007Z,102419
2017-09-26T11:05:52.211Z,102429
2017-09-26T11:08:21.762Z,102428
2017-09-26T11:10:50.905Z,102426
2017-09-26T11:13:20.083Z,102423
2017-09-26T11:15:49.281Z,102424
2017-09-26T11:18:20.326Z,102418
2017-09-26T11:20:49.475Z,102417
2017-09-26T11:23:18.879Z,102416
2017-09-26T11:25:48.122Z,102415
2017-09-26T11:28:17.285Z,102415
2017-09-26T11:30:46.927Z,102413
2017-09-26T11:33:16.903Z,102409
2017-09-26T11:35:46.255Z,102407
2017-09-26T11:38:15.718Z,102412
2017-09-26T11:40:45.439Z,102410
2017-09-26T11:43:14.874Z,102405
2017-09-26T11:45:45.255Z,102406
2017-09-26T11:48:14.395Z,102413
2017-09-26T11:50:43.583Z,102411
2017-09-26T11:53:14.426Z,102409
2017-09-26T11:55:43.651Z,102403
2017-09-26T11:58:13.909Z,102400
2017-09-26T12:00:43.126Z,102403
2017-09-26T12:03:12.310Z,102403
2017-09-26T12:05:42.102Z,102399
2017-09-26T12:08:11.255Z,102397
2017-09-26T12:10:40.385Z,102392
2017-09-26T12:13:16.189Z,102388
2017-09-26T12:15:45.363Z,102385
2017-09-26T12:18:14.634Z,102385
2017-09-26T12:20:43.896Z,102387
2017-09-26T12:23:13.069Z,102385
2017-09-26T12:25:42.257Z,102387
2017-09-26T12:28:12.550Z,102381
2017-09-26T12:30:42.168Z,102381
2017-09-26T12:33:11.493Z,102384
2017-09-26T12:35:40.735Z,102383
2017-09-26T12:38:10.811Z,102383
2017-09-26T12:40:40.833Z,102380
2017-09-26T12:43:11.273Z,102387
2017-09-26T12:45:40.456Z,102383
2017-09-26T12:48:09.672Z,102382
2017-09-26T12:50:39.818Z,102384
2017-09-26T12:53:08.991Z,102379
2017-09-26T12:55:38.293Z,102376
2017-09-26T12:58:07.819Z,102370
2017-09-26T13:00:37.939Z,102360
2017-09-26T13:03:07.082Z,102366
2017-09-26T13:05:36.803Z,102358
2017-09-26T13:08:05.978Z,102361
2017-09-26T13:10:35.556Z,102357
2017-09-26T13:13:05.189Z,102356
2017-09-26T13:15:34.355Z,102356
2017-09-26T13:18:03.484Z,102352
2017-09-26T13:20:32.919Z,102355
2017-09-26T13:23:02.948Z,102353
2017-09-26T13:25:32.892Z,102350
2017-09-26T13:28:02.453Z,102348
2017-09-26T13:30:31.628Z,102345
2017-09-26T13:33:00.762Z,102353
2017-09-26T13:35:30.838Z,102351
2017-09-26T13:37:59.958Z,102359
2017-09-26T13:40:29.055Z,102366
2017-09-26T13:42:58.454Z,102360
2017-09-26T13:45:27.560Z,102369
2017-09-26T13:47:56.780Z,102363
2017-09-26T13:50:26.083Z,102365
2017-09-26T13:52:55.201Z,102362
2017-09-26T13:55:24.365Z,102368
2017-09-26T13:57:54.564Z,102368
2017-09-26T14:00:23.714Z,102369
2017-09-26T14:02:52.850Z,102373
2017-09-26T14:05:22.367Z,102378
2017-09-26T14:07:51.490Z,102378
2017-09-26T14:10:20.637Z,102384
2017-09-26T14:12:50.116Z,102376
2017-09-26T14:15:19.256Z,102380
2017-09-26T14:17:48.387Z,102385
2017-09-26T14:20:18.089Z,102385
2017-09-26T14:22:47.385Z,102382
2017-09-26T14:25:17.278Z,102382
2017-09-26T14:27:46.782Z,102382
2017-09-26T14:30:15.915Z,102383
2017-09-26T14:32:45.234Z,102386
2017-09-26T14:35:14.492Z,102387
2017-09-26T14:37:45.098Z,102384
2017-09-26T14:40:15.017Z,102382
2017-09-26T14:42:44.214Z,102385
2017-09-26T14:45:15.689Z,102382
2017-09-26T14:47:44.893Z,102380
2017-09-26T14:50:16.303Z,102381
2017-09-26T14:52:48.027Z,102382
2017-09-26T14:55:17.496Z,102382
2017-09-26T14:57:47.608Z,102388
2017-09-26T15:00:19.084Z,102388
2017-09-26T15:02:52.924Z,102385
2017-09-26T15:05:22.147Z,102389
2017-09-26T15:07:51.294Z,102387
2017-09-26T15:10:20.441Z,102386
2017-09-26T15:12:50.578Z,102386
2017-09-26T15:15:19.702Z,102391
2017-09-26T15:17:49.597Z,102390
2017-09-26T15:20:19.122Z,102394
2017-09-26T15:22:48.290Z,102398
2017-09-26T15:25:17.890Z,102399
2017-09-26T15:27:47.960Z,102400
2017-09-26T15:30:17.217Z,102400
2017-09-26T15:32:50.119Z,102394
2017-09-26T15:35:19.642Z,102394
2017-09-26T15:37:49.255Z,102400
2017-09-26T15:40:19.558Z,102398
2017-09-26T15:45:24.673Z,102394
2017-09-26T15:47:53.794Z,102398
2017-09-26T15:50:23.024Z,102390
2017-09-26T15:52:52.410Z,102391
2017-09-26T15:55:27.149Z,102389
2017-09-26T15:57:56.648Z,102393
2017-09-26T16:00:26.360Z,102397
2017-09-26T16:02:55.805Z,102398
2017-09-26T16:05:26.308Z,102398
2017-09-26T16:07:55.457Z,102403
2017-09-26T16:10:25.039Z,102401
2017-09-26T16:12:55.591Z,102403
2017-09-26T16:15:26.192Z,102403
2017-09-26T16:20:34.207Z,102400
2017-09-26T16:23:03.757Z,102405
2017-09-26T16:25:36.247Z,102405
2017-09-26T16:28:05.846Z,102399
2017-09-26T16:30:35.115Z,102402
2017-09-26T16:33:05.138Z,102403
2017-09-26T16:35:35.490Z,102402
2017-09-26T16:38:04.648Z,102408
2017-09-26T16:40:35.039Z,102415
2017-09-26T16:43:04.813Z,102408
2017-09-26T16:45:34.887Z,102413
2017-09-26T16:48:04.644Z,102414
2017-09-26T16:50:34.118Z,102410
2017-09-26T16:53:03.214Z,102410
2017-09-26T16:55:32.338Z,102410
2017-09-26T16:58:02.619Z,102418
2017-09-26T17:00:32.576Z,102417
2017-09-26T17:03:01.751Z,102420
2017-09-26T17:05:31.135Z,102426
2017-09-26T17:08:02.489Z,102424
2017-09-26T17:10:33.230Z,102430
2017-09-26T17:13:02.466Z,102429
2017-09-26T17:15:33.073Z,102433
2017-09-26T17:18:02.394Z,102432
2017-09-26T17:20:32.306Z,102434
2017-09-26T17:23:04.891Z,102439
2017-09-26T17:25:34.055Z,102443
2017-09-26T17:28:03.285Z,102443
2017-09-26T17:30:33.737Z,102449
2017-09-26T17:33:02.940Z,102453
2017-09-26T17:35:34.673Z,102454
2017-09-26T17:38:06.144Z,102450
2017-09-26T17:40:35.678Z,102455
2017-09-26T17:43:04.854Z,102458
2017-09-26T17:45:34.343Z,102465
2017-09-26T17:48:04.112Z,102463
2017-09-26T17:50:35.054Z,102463
2017-09-26T17:53:06.206Z,102462
2017-09-26T17:55:35.362Z,102466
2017-09-26T17:58:04.492Z,102467
2017-09-26T18:00:34.033Z,102470
2017-09-26T18:03:03.922Z,102466
2017-09-26T18:05:33.686Z,102469
2017-09-26T18:08:03.283Z,102474
2017-09-26T18:10:32.407Z,102478
2017-09-26T18:13:01.549Z,102481
2017-09-26T18:15:30.705Z,102481
2017-09-26T18:18:01.419Z,102484
2017-09-26T18:20:30.595Z,102486
2017-09-26T18:23:00.288Z,102495
2017-09-26T18:25:29.384Z,102494
2017-09-26T18:27:58.530Z,102489
2017-09-26T18:30:28.528Z,102488
2017-09-26T18:32:58.421Z,102486
2017-09-26T18:35:28.412Z,102483
2017-09-26T18:37:58.379Z,102484
2017-09-26T18:40:27.784Z,102485
2017-09-26T18:42:57.567Z,102485
2017-09-26T18:45:27.182Z,102492
2017-09-26T18:47:56.419Z,102495
2017-09-26T18:50:25.668Z,102501
2017-09-26T18:52:56.132Z,102504
2017-09-26T18:55:26.055Z,102499
2017-09-26T18:57:55.271Z,102501
2017-09-26T19:00:24.834Z,102500
2017-09-26T19:02:53.995Z,102500
2017-09-26T19:05:23.495Z,102499
2017-09-26T19:07:52.826Z,102505
2017-09-26T19:10:21.994Z,102505
2017-09-26T19:12:53.607Z,102510
2017-09-26T19:15:22.761Z,102504
2017-09-26T19:17:52.391Z,102508
2017-09-26T19:20:21.757Z,102510
2017-09-26T19:22:51.047Z,102507
2017-09-26T19:25:20.330Z,102509
2017-09-26T19:27:50.506Z,102512
2017-09-26T19:30:20.137Z,102511
2017-09-26T19:32:49.351Z,102516
2017-09-26T19:35:19.793Z,102509
2017-09-26T19:37:49.302Z,102512
2017-09-26T19:40:20.445Z,102518
2017-09-26T19:42:51.019Z,102511
2017-09-26T19:45:20.752Z,102513
2017-09-26T19:47:50.452Z,102512
2017-09-26T19:50:19.729Z,102517
2017-09-26T19:52:50.940Z,102518
2017-09-26T19:55:20.559Z,102514
2017-09-26T19:57:51.615Z,102515
2017-09-26T20:00:23.511Z,102514
2017-09-26T20:02:56.834Z,102513
2017-09-26T20:05:27.807Z,102512
2017-09-26T20:07:58.423Z,102511
2017-09-26T20:10:27.594Z,102505
2017-09-26T20:12:57.971Z,102504
2017-09-26T20:15:27.218Z,102509
2017-09-26T20:17:58.139Z,102502
2017-09-26T20:20:28.104Z,102504
2017-09-26T20:22:57.282Z,102499
2017-09-26T20:25:26.475Z,102497
2017-09-26T20:27:55.717Z,102497
2017-09-26T20:30:25.624Z,102499
2017-09-26T20:32:55.562Z,102502
2017-09-26T20:35:25.387Z,102503
2017-09-26T20:37:55.324Z,102500
2017-09-26T20:40:25.335Z,102500
2017-09-26T20:42:55.252Z,102496
2017-09-26T20:45:24.613Z,102501
2017-09-26T20:47:54.581Z,102506
2017-09-26T20:50:25.901Z,102500
2017-09-26T20:52:55.117Z,102505
2017-09-26T20:55:24.473Z,102499
2017-09-26T20:57:54.150Z,102500
2017-09-26T21:00:23.324Z,102505
2017-09-26T21:02:53.651Z,102506
2017-09-26T21:05:22.936Z,102501
2017-09-26T21:07:52.131Z,102505
2017-09-26T21:10:21.342Z,102497
2017-09-26T21:12:50.966Z,102501
2017-09-26T21:15:20.826Z,102504
2017-09-26T21:17:50.050Z,102501
2017-09-26T21:20:19.787Z,102501
2017-09-26T21:22:50.031Z,102507
2017-09-26T21:25:20.258Z,102505
2017-09-26T21:27:49.733Z,102509
2017-09-26T21:30:20.719Z,102509
2017-09-26T21:32:50.480Z,102502
2017-09-26T21:35:19.764Z,102505
2017-09-26T21:37:49.206Z,102507
2017-09-26T21:40:19.896Z,102513
2017-09-26T21:42:49.205Z,102511
2017-09-26T21:45:20.187Z,102510
2017-09-26T21:47:50.485Z,102514
2017-09-26T21:50:19.744Z,102511
2017-09-26T21:52:52.272Z,102511
2017-09-26T21:55:21.906Z,102509
2017-09-26T21:57:51.153Z,102506
2017-09-26T22:00:21.473Z,102504
2017-09-26T22:02:51.556Z,102513
2017-09-26T22:05:21.052Z,102510
2017-09-26T22:07:50.264Z,102511
2017-09-26T22:10:20.827Z,102509
2017-09-26T22:12:51.260Z,102513
2017-09-26T22:15:20.759Z,102513
2017-09-26T22:17:50.699Z,102514
2017-09-26T22:20:20.223Z,102515
2017-09-26T22:22:49.494Z,102507
2017-09-26T22:25:19.809Z,102512
2017-09-26T22:27:48.977Z,102509
2017-09-26T22:30:18.410Z,102511
2017-09-26T22:32:47.918Z,102507
2017-09-26T22:35:18.567Z,102503
2017-09-26T22:37:49.197Z,102504
2017-09-26T22:40:23.194Z,102503
2017-09-26T22:42:52.857Z,102506
2017-09-26T22:45:22.216Z,102501
2017-09-26T22:47:52.257Z,102498
2017-09-26T22:50:22.132Z,102506
2017-09-26T22:52:52.369Z,102508
2017-09-26T22:55:21.998Z,102507
2017-09-26T22:57:52.186Z,102510
2017-09-26T23:00:22.574Z,102510
2017-09-26T23:02:51.708Z,102508
2017-09-26T23:05:21.192Z,102509
2017-09-26T23:07:50.428Z,102510
2017-09-26T23:10:20.441Z,102512
2017-09-26T23:12:50.059Z,102514
2017-09-26T23:15:19.301Z,102510
2017-09-26T23:17:49.199Z,102512
2017-09-26T23:20:18.702Z,102505
2017-09-26T23:22:47.897Z,102504
2017-09-26T23:25:17.096Z,102502
2017-09-26T23:27:46.574Z,102501
2017-09-26T23:30:15.735Z,102501
2017-09-26T23:32:45.421Z,102499
2017-09-26T23:35:15.086Z,102502
2017-09-26T23:37:45.209Z,102505
2017-09-26T23:40:14.989Z,102509
2017-09-26T23:42:44.396Z,102503
2017-09-26T23:45:14.644Z,102501
2017-09-26T23:47:43.814Z,102504
2017-09-26T23:50:13.416Z,102502
2017-09-26T23:52:42.837Z,102498
2017-09-26T23:55:12.184Z,102487
2017-09-26T23:57:41.858Z,102486
